createdAt,value
2019-03-30T00:01:33.970Z,53.40
2019-03-30T00:04:09.823Z,57.83
2019-03-30T00:06:45.680Z,58.75
2019-03-30T00:09:21.557Z,54.23
2019-03-30T00:11:57.996Z,53.73
2019-03-30T00:14:33.953Z,51.50
2019-03-30T00:17:09.809Z,51.18
2019-03-30T00:19:45.768Z,55.75
2019-03-30T00:22:21.620Z,52.58
2019-03-30T00:24:57.645Z,55.40
2019-03-30T00:27:33.429Z,62.10
2019-03-30T00:30:10.410Z,59.83
2019-03-30T00:32:47.333Z,59.93
2019-03-30T00:35:23.144Z,56.05
2019-03-30T00:37:58.896Z,52.78
2019-03-30T00:40:34.751Z,56.13
2019-03-30T00:43:10.601Z,58.10
2019-03-30T00:45:46.501Z,55.15
2019-03-30T00:48:22.873Z,57.83
2019-03-30T00:50:58.685Z,54.40
2019-03-30T00:53:35.551Z,54.38
2019-03-30T00:56:11.433Z,52.78
2019-03-30T00:58:47.313Z,59.35
2019-03-30T01:01:23.227Z,57.78
2019-03-30T01:03:59.077Z,59.38
2019-03-30T01:06:34.927Z,63.78
2019-03-30T01:09:10.881Z,56.75
2019-03-30T01:11:47.206Z,53.83
2019-03-30T01:14:23.221Z,53.23
2019-03-30T01:16:59.069Z,52.33
2019-03-30T01:19:34.930Z,53.33
2019-03-30T01:22:12.062Z,54.20
2019-03-30T01:24:48.257Z,54.67
2019-03-30T01:27:24.116Z,59.20
2019-03-30T01:30:00.334Z,59.23
2019-03-30T01:32:36.128Z,60.33
2019-03-30T01:35:12.360Z,64.32
2019-03-30T01:40:50.120Z,58.90
2019-03-30T01:43:26.269Z,58.45
2019-03-30T01:46:02.134Z,57.75
2019-03-30T01:48:38.090Z,52.67
2019-03-30T01:51:13.948Z,52.58
2019-03-30T01:53:49.804Z,50.65
2019-03-30T01:56:25.660Z,48.17
2019-03-30T01:59:01.500Z,50.98
2019-03-30T02:01:37.350Z,50.83
2019-03-30T02:04:13.213Z,49.10
2019-03-30T02:06:49.065Z,49.27
2019-03-30T02:09:25.233Z,50.10
2019-03-30T02:12:01.193Z,48.83
2019-03-30T02:14:37.046Z,52.13
2019-03-30T02:17:12.897Z,54.08
2019-03-30T02:19:48.748Z,55.48
2019-03-30T02:22:25.489Z,55.17
2019-03-30T02:25:03.663Z,56.05
2019-03-30T02:27:39.483Z,53.87
2019-03-30T02:30:15.604Z,52.13
2019-03-30T02:32:51.506Z,53.35
2019-03-30T02:35:27.352Z,53.30
2019-03-30T02:38:03.315Z,52.38
2019-03-30T02:40:39.173Z,50.05
2019-03-30T02:43:15.013Z,47.73
2019-03-30T02:45:51.073Z,47.70
2019-03-30T02:48:26.940Z,48.83
2019-03-30T02:51:02.775Z,48.05
2019-03-30T02:53:38.948Z,47.62
2019-03-30T02:56:14.814Z,47.13
2019-03-30T02:58:52.158Z,48.10
2019-03-30T03:01:28.047Z,47.20
2019-03-30T03:04:04.554Z,48.08
2019-03-30T03:06:40.477Z,48.50
2019-03-30T03:09:16.319Z,46.68
2019-03-30T03:11:52.256Z,49.63
2019-03-30T03:14:28.120Z,50.60
2019-03-30T03:17:03.986Z,49.98
2019-03-30T03:19:39.847Z,49.73
2019-03-30T03:22:15.693Z,45.20
2019-03-30T03:24:52.465Z,47.60
2019-03-30T03:27:28.329Z,44.13
2019-03-30T03:30:05.902Z,47.40
2019-03-30T03:32:41.766Z,45.52
2019-03-30T03:35:17.628Z,46.63
2019-03-30T03:37:53.469Z,48.08
2019-03-30T03:40:29.437Z,50.40
2019-03-30T03:43:05.308Z,51.20
2019-03-30T03:45:41.135Z,52.40
2019-03-30T03:48:17.106Z,51.20
2019-03-30T03:50:55.930Z,52.48
2019-03-30T03:53:32.496Z,54.95
2019-03-30T03:56:09.876Z,54.85
2019-03-30T03:58:47.057Z,55.90
2019-03-30T04:01:23.854Z,54.63
2019-03-30T04:04:00.731Z,54.05
2019-03-30T04:06:39.025Z,52.17
2019-03-30T04:09:16.476Z,51.50
2019-03-30T04:11:53.005Z,48.95
2019-03-30T04:14:28.845Z,49.08
2019-03-30T04:17:04.704Z,51.60
2019-03-30T04:19:40.584Z,51.15
2019-03-30T04:22:16.522Z,49.30
2019-03-30T04:24:52.360Z,49.27
2019-03-30T04:27:28.530Z,51.28
2019-03-30T04:30:06.083Z,53.84
2019-03-30T04:32:41.871Z,55.67
2019-03-30T04:35:18.400Z,53.48
2019-03-30T04:37:55.110Z,55.55
2019-03-30T04:40:30.967Z,53.98
2019-03-30T04:43:06.830Z,56.02
2019-03-30T04:45:43.301Z,58.63
2019-03-30T04:48:19.094Z,59.88
2019-03-30T04:50:54.903Z,60.00
2019-03-30T04:53:31.598Z,64.00
2019-03-30T04:56:07.627Z,64.67
2019-03-30T04:58:43.647Z,65.32
2019-03-30T05:01:19.552Z,66.05
2019-03-30T05:03:55.605Z,64.55
2019-03-30T05:06:31.965Z,65.42
2019-03-30T05:09:07.819Z,66.53
2019-03-30T05:11:43.601Z,64.00
2019-03-30T05:14:19.419Z,65.60
2019-03-30T05:16:55.381Z,65.92
2019-03-30T05:19:31.518Z,64.00
2019-03-30T05:22:12.852Z,61.95
2019-03-30T05:24:45.355Z,57.95
2019-03-30T05:27:21.767Z,56.55
2019-03-30T05:29:57.635Z,54.03
2019-03-30T05:32:33.473Z,55.08
2019-03-30T05:35:09.678Z,54.15
2019-03-30T05:37:45.499Z,54.77
2019-03-30T05:40:21.346Z,54.33
2019-03-30T05:42:57.740Z,53.30
2019-03-30T05:45:33.620Z,56.42
2019-03-30T05:48:10.545Z,54.48
2019-03-30T05:50:46.409Z,55.48
2019-03-30T05:53:22.257Z,61.95
2019-03-30T05:55:58.115Z,72.47
2019-03-30T05:58:34.954Z,88.30
2019-03-30T06:01:18.342Z,95.55
2019-03-30T06:03:54.986Z,96.30
2019-03-30T06:06:35.978Z,89.60
2019-03-30T06:09:12.826Z,79.53
2019-03-30T06:11:48.693Z,69.90
2019-03-30T06:14:30.592Z,64.22
2019-03-30T06:17:08.668Z,60.63
2019-03-30T06:19:44.537Z,57.13
2019-03-30T06:22:20.375Z,52.58
2019-03-30T06:24:56.471Z,51.80
2019-03-30T06:27:32.271Z,49.58
2019-03-30T06:30:23.569Z,50.52
2019-03-30T06:32:59.527Z,50.33
2019-03-30T06:35:35.343Z,47.48
2019-03-30T06:38:11.166Z,48.68
2019-03-30T06:40:47.031Z,50.85
2019-03-30T06:43:23.790Z,48.68
2019-03-30T06:46:00.587Z,51.92
2019-03-30T06:48:36.396Z,45.98
2019-03-30T06:51:12.165Z,46.18
2019-03-30T06:53:47.936Z,45.12
2019-03-30T06:56:23.666Z,46.05
2019-03-30T06:58:59.461Z,48.55
2019-03-30T07:01:35.254Z,50.75
2019-03-30T07:04:11.504Z,51.08
2019-03-30T07:06:47.751Z,49.27
2019-03-30T07:09:23.602Z,45.85
2019-03-30T07:12:00.754Z,46.63
2019-03-30T07:14:38.010Z,43.13
2019-03-30T07:17:13.947Z,44.03
2019-03-30T07:19:53.095Z,44.27
2019-03-30T07:22:29.063Z,47.30
2019-03-30T07:25:05.760Z,43.70
2019-03-30T07:27:41.578Z,44.48
2019-03-30T07:30:23.399Z,43.33
2019-03-30T07:33:00.815Z,43.25
2019-03-30T07:35:36.564Z,42.88
2019-03-30T07:38:12.828Z,41.55
2019-03-30T07:40:48.705Z,55.52
2019-03-30T07:43:24.654Z,65.28
2019-03-30T07:46:00.508Z,55.15
2019-03-30T07:48:36.468Z,43.23
2019-03-30T07:51:12.409Z,41.63
2019-03-30T07:53:48.399Z,40.73
2019-03-30T07:56:24.148Z,52.03
2019-03-30T07:58:59.927Z,52.10
2019-03-30T08:01:35.754Z,54.67
2019-03-30T08:04:11.551Z,57.95
2019-03-30T08:06:47.404Z,57.55
2019-03-30T08:09:23.286Z,46.55
2019-03-30T08:12:08.941Z,43.83
2019-03-30T08:14:51.887Z,43.95
2019-03-30T08:17:27.639Z,51.28
2019-03-30T08:20:11.622Z,56.80
2019-03-30T08:22:48.434Z,54.70
2019-03-30T08:25:30.080Z,54.60
2019-03-30T08:28:11.521Z,54.88
2019-03-30T08:30:49.003Z,56.05
2019-03-30T08:33:30.378Z,55.80
2019-03-30T08:36:06.745Z,58.65
2019-03-30T08:38:42.468Z,57.45
2019-03-30T08:41:20.334Z,59.18
2019-03-30T08:43:56.092Z,58.42
2019-03-30T08:46:31.854Z,59.15
2019-03-30T08:49:07.639Z,56.00
2019-03-30T08:51:43.419Z,56.73
2019-03-30T08:54:19.165Z,57.48
2019-03-30T08:56:55.023Z,57.17
2019-03-30T08:59:30.926Z,54.53
2019-03-30T09:02:07.116Z,55.73
2019-03-30T09:04:42.891Z,51.23
2019-03-30T09:07:18.782Z,50.10
2019-03-30T09:09:54.564Z,49.35
2019-03-30T09:12:30.489Z,47.35
2019-03-30T09:15:07.201Z,51.58
2019-03-30T09:17:42.975Z,52.88
2019-03-30T09:20:18.838Z,53.05
2019-03-30T09:22:54.716Z,49.13
2019-03-30T09:25:30.491Z,51.70
2019-03-30T09:28:06.320Z,46.92
2019-03-30T09:30:42.187Z,39.80
2019-03-30T09:33:18.144Z,35.05
2019-03-30T09:35:55.530Z,34.13
2019-03-30T09:38:31.484Z,29.87
2019-03-30T09:41:07.369Z,27.07
2019-03-30T09:43:43.181Z,26.55
2019-03-30T09:46:19.137Z,26.82
2019-03-30T09:48:56.126Z,22.25
2019-03-30T09:51:32.567Z,20.30
2019-03-30T09:54:22.806Z,22.32
2019-03-30T09:56:45.942Z,21.30
2019-03-30T09:59:21.781Z,23.12
2019-03-30T10:01:57.566Z,23.07
2019-03-30T10:04:33.321Z,21.52
2019-03-30T10:07:09.146Z,23.02
2019-03-30T10:09:47.264Z,24.82
2019-03-30T10:12:22.556Z,23.30
2019-03-30T10:14:58.358Z,23.83
2019-03-30T10:17:34.207Z,24.02
2019-03-30T10:20:11.363Z,22.60
2019-03-30T10:22:47.712Z,24.92
2019-03-30T10:25:24.676Z,25.52
2019-03-30T10:28:00.652Z,22.62
2019-03-30T10:30:36.677Z,24.45
2019-03-30T10:33:12.426Z,27.32
2019-03-30T10:35:48.274Z,29.55
2019-03-30T10:38:24.368Z,24.85
2019-03-30T10:41:00.242Z,26.62
2019-03-30T10:43:36.029Z,26.50
2019-03-30T10:46:11.822Z,27.35
2019-03-30T10:48:47.592Z,27.48
2019-03-30T10:51:24.337Z,30.82
2019-03-30T10:54:00.449Z,29.50
2019-03-30T10:56:36.454Z,24.35
2019-03-30T10:59:12.271Z,24.87
2019-03-30T11:01:48.069Z,23.77
2019-03-30T11:04:23.855Z,27.48
2019-03-30T11:06:59.647Z,23.87
2019-03-30T11:09:35.641Z,31.52
2019-03-30T11:12:11.383Z,18.73
2019-03-30T11:14:47.167Z,24.25
2019-03-30T11:17:22.970Z,28.32
2019-03-30T11:19:59.220Z,26.17
2019-03-30T11:22:36.006Z,21.57
2019-03-30T11:25:11.976Z,24.80
2019-03-30T11:27:47.783Z,24.52
2019-03-30T11:30:23.813Z,23.27
2019-03-30T11:32:59.626Z,27.13
2019-03-30T11:35:36.430Z,27.65
2019-03-30T11:38:12.351Z,28.42
2019-03-30T11:40:48.255Z,26.52
2019-03-30T11:43:24.030Z,25.37
2019-03-30T11:46:00.794Z,27.82
2019-03-30T11:48:37.661Z,32.15
2019-03-30T11:51:13.837Z,35.23
2019-03-30T11:53:49.575Z,35.15
2019-03-30T11:56:25.373Z,32.50
2019-03-30T11:59:02.732Z,31.02
2019-03-30T12:01:38.543Z,28.85
2019-03-30T12:04:14.290Z,30.55
2019-03-30T12:06:51.970Z,31.65
2019-03-30T12:09:27.880Z,30.52
2019-03-30T12:12:03.731Z,35.52
2019-03-30T12:14:39.479Z,32.10
2019-03-30T12:17:15.569Z,32.42
2019-03-30T12:19:51.440Z,28.62
2019-03-30T12:22:28.283Z,26.30
2019-03-30T12:25:05.312Z,27.17
2019-03-30T12:27:41.059Z,25.97
2019-03-30T12:30:16.961Z,25.13
2019-03-30T12:32:52.765Z,31.42
2019-03-30T12:35:28.701Z,20.55
2019-03-30T12:38:04.690Z,21.17
2019-03-30T12:40:40.438Z,19.55
2019-03-30T12:43:16.216Z,22.00
2019-03-30T12:45:52.036Z,17.32
2019-03-30T12:48:27.819Z,18.73
2019-03-30T12:51:03.566Z,20.37
2019-03-30T12:53:49.461Z,15.75
2019-03-30T12:56:16.866Z,18.50
2019-03-30T12:58:52.942Z,19.23
2019-03-30T13:01:28.772Z,17.82
2019-03-30T13:04:04.622Z,17.30
2019-03-30T13:06:40.482Z,17.30
2019-03-30T13:09:16.328Z,13.43
2019-03-30T13:11:52.192Z,19.25
2019-03-30T13:14:28.036Z,18.98
2019-03-30T13:17:03.894Z,15.65
2019-03-30T13:19:39.849Z,15.05
2019-03-30T13:22:15.714Z,18.80
2019-03-30T13:24:51.555Z,13.50
2019-03-30T13:27:27.403Z,19.98
2019-03-30T13:30:03.734Z,17.30
2019-03-30T13:32:39.776Z,24.02
2019-03-30T13:35:15.834Z,22.45
2019-03-30T13:37:52.006Z,21.17
2019-03-30T13:40:27.779Z,21.93
2019-03-30T13:43:03.591Z,23.07
2019-03-30T13:45:39.366Z,25.50
2019-03-30T13:48:15.248Z,23.12
2019-03-30T13:50:51.210Z,24.45
2019-03-30T13:53:27.295Z,23.57
2019-03-30T13:56:16.713Z,22.10
2019-03-30T13:58:41.707Z,23.67
2019-03-30T14:01:17.627Z,23.20
2019-03-30T14:03:53.372Z,23.95
2019-03-30T14:06:29.224Z,23.67
2019-03-30T14:09:06.717Z,23.20
2019-03-30T14:11:42.705Z,23.05
2019-03-30T14:14:18.520Z,25.17
2019-03-30T14:16:54.284Z,25.35
2019-03-30T14:19:30.044Z,24.37
2019-03-30T14:22:05.981Z,23.73
2019-03-30T14:24:42.241Z,23.35
2019-03-30T14:27:19.287Z,23.50
2019-03-30T14:29:55.129Z,23.98
2019-03-30T14:32:31.331Z,23.22
2019-03-30T14:35:07.733Z,23.22
2019-03-30T14:37:43.651Z,23.20
2019-03-30T14:40:19.758Z,22.23
2019-03-30T14:42:55.505Z,23.87
2019-03-30T14:45:31.271Z,23.70
2019-03-30T14:48:07.267Z,23.42
2019-03-30T14:50:43.076Z,23.50
2019-03-30T14:53:19.059Z,22.37
2019-03-30T14:55:55.039Z,21.97
2019-03-30T14:58:30.986Z,22.00
2019-03-30T15:01:06.946Z,29.15
2019-03-30T15:03:42.723Z,25.82
2019-03-30T15:06:19.498Z,24.35
2019-03-30T15:08:55.310Z,21.68
2019-03-30T15:11:31.105Z,21.35
2019-03-30T15:14:07.057Z,21.45
2019-03-30T15:16:42.918Z,21.25
2019-03-30T15:19:18.757Z,20.72
2019-03-30T15:21:54.504Z,21.73
2019-03-30T15:24:30.879Z,21.68
2019-03-30T15:27:06.706Z,21.55
2019-03-30T15:29:45.424Z,22.15
2019-03-30T15:32:20.048Z,21.87
2019-03-30T15:34:58.380Z,22.60
2019-03-30T15:37:33.415Z,22.37
2019-03-30T15:40:09.323Z,23.35
2019-03-30T15:42:45.102Z,25.50
2019-03-30T15:45:20.905Z,21.17
2019-03-30T15:47:56.643Z,20.68
2019-03-30T15:50:32.402Z,21.30
2019-03-30T15:53:08.172Z,27.13
2019-03-30T15:55:43.915Z,22.60
2019-03-30T15:58:19.753Z,21.27
2019-03-30T16:00:55.798Z,21.20
2019-03-30T16:03:31.650Z,20.57
2019-03-30T16:06:07.613Z,19.48
2019-03-30T16:08:43.405Z,18.35
2019-03-30T16:11:19.279Z,20.57
2019-03-30T16:13:55.046Z,20.90
2019-03-30T16:16:30.788Z,20.08
2019-03-30T16:19:06.681Z,19.62
2019-03-30T16:21:42.377Z,19.77
2019-03-30T16:24:18.114Z,20.55
2019-03-30T16:26:53.862Z,23.70
2019-03-30T16:29:29.658Z,25.35
2019-03-30T16:32:05.422Z,26.73
2019-03-30T16:34:41.222Z,21.68
2019-03-30T16:37:18.002Z,19.87
2019-03-30T16:39:54.063Z,19.42
2019-03-30T16:42:30.830Z,19.10
2019-03-30T16:45:07.395Z,24.70
2019-03-30T16:47:43.352Z,26.15
2019-03-30T16:50:19.225Z,25.57
2019-03-30T16:52:54.968Z,29.35
2019-03-30T16:55:31.169Z,30.75
2019-03-30T16:58:07.084Z,27.13
2019-03-30T17:00:55.590Z,28.32
2019-03-30T17:03:20.497Z,33.30
2019-03-30T17:05:56.350Z,30.17
2019-03-30T17:08:32.312Z,30.10
2019-03-30T17:11:08.050Z,27.48
2019-03-30T17:13:43.902Z,27.02
2019-03-30T17:16:19.670Z,26.48
2019-03-30T17:18:56.029Z,30.10
2019-03-30T17:21:31.920Z,37.78
2019-03-30T17:24:07.744Z,61.77
2019-03-30T17:26:43.518Z,73.00
2019-03-30T17:29:37.155Z,49.40
2019-03-30T17:32:14.206Z,64.45
2019-03-30T17:34:51.357Z,71.42
2019-03-30T17:37:27.087Z,31.37
2019-03-30T17:40:02.958Z,29.12
2019-03-30T17:42:39.287Z,29.70
2019-03-30T17:45:15.280Z,31.93
2019-03-30T17:47:51.099Z,33.58
2019-03-30T17:50:26.955Z,35.43
2019-03-30T17:53:02.771Z,40.55
2019-03-30T17:55:38.664Z,43.98
2019-03-30T17:58:14.494Z,45.35
2019-03-30T18:00:50.259Z,49.38
2019-03-30T18:03:26.179Z,50.20
2019-03-30T18:06:02.120Z,53.00
2019-03-30T18:08:37.910Z,53.42
2019-03-30T18:11:13.708Z,54.03
2019-03-30T18:13:49.469Z,81.00
2019-03-30T18:16:25.211Z,45.43
2019-03-30T18:19:01.226Z,46.55
2019-03-30T18:21:37.938Z,37.45
2019-03-30T18:24:14.070Z,41.92
2019-03-30T18:26:49.977Z,43.10
2019-03-30T18:29:25.768Z,46.42
2019-03-30T18:32:01.605Z,51.65
2019-03-30T18:34:37.431Z,49.83
2019-03-30T18:37:13.303Z,53.20
2019-03-30T18:39:49.232Z,45.78
2019-03-30T18:42:25.033Z,80.95
2019-03-30T18:45:01.100Z,52.95
2019-03-30T18:47:36.980Z,80.17
2019-03-30T18:50:12.958Z,55.80
2019-03-30T18:52:48.934Z,62.93
2019-03-30T18:55:24.842Z,85.45
2019-03-30T18:58:00.698Z,117.10
2019-03-30T19:00:36.480Z,99.42
2019-03-30T19:03:12.266Z,115.62
2019-03-30T19:05:48.080Z,109.05
2019-03-30T19:08:24.302Z,108.12
2019-03-30T19:11:00.109Z,148.78
2019-03-30T19:13:36.025Z,144.60
2019-03-30T19:16:11.800Z,130.12
2019-03-30T19:18:47.774Z,128.57
2019-03-30T19:21:23.530Z,155.75
2019-03-30T19:23:59.278Z,148.38
2019-03-30T19:26:35.295Z,152.20
2019-03-30T19:29:11.077Z,369.65
2019-03-30T19:31:47.011Z,263.70
2019-03-30T19:34:22.867Z,170.85
2019-03-30T19:36:58.713Z,120.05
2019-03-30T19:39:34.525Z,141.30
2019-03-30T19:42:10.353Z,183.47
2019-03-30T19:44:46.627Z,208.85
2019-03-30T19:47:23.127Z,157.35
2019-03-30T19:49:58.935Z,149.02
2019-03-30T19:52:40.215Z,243.45
2019-03-30T19:55:12.820Z,290.07
2019-03-30T19:57:48.625Z,290.25
2019-03-30T20:00:24.831Z,259.33
2019-03-30T20:03:00.702Z,208.10
2019-03-30T20:05:36.607Z,172.05
2019-03-30T20:08:12.877Z,148.35
2019-03-30T20:10:48.825Z,135.05
2019-03-30T20:13:24.840Z,115.03
2019-03-30T20:16:00.758Z,110.12
2019-03-30T20:18:36.974Z,108.52
2019-03-30T20:21:12.872Z,105.35
2019-03-30T20:23:48.793Z,101.27
2019-03-30T20:26:24.597Z,95.95
2019-03-30T20:29:00.404Z,103.90
2019-03-30T20:31:36.231Z,113.77
2019-03-30T20:34:12.477Z,109.30
2019-03-30T20:36:48.199Z,130.07
2019-03-30T20:39:24.005Z,217.72
2019-03-30T20:41:59.785Z,154.50
2019-03-30T20:44:35.667Z,115.25
2019-03-30T20:47:11.463Z,86.92
2019-03-30T20:49:47.544Z,142.53
2019-03-30T20:52:24.064Z,192.65
2019-03-30T20:54:59.873Z,160.95
2019-03-30T20:57:36.093Z,94.92
2019-03-30T21:00:12.716Z,82.27
2019-03-30T21:02:48.488Z,68.28
2019-03-30T21:05:24.313Z,72.08
2019-03-30T21:08:00.176Z,100.18
2019-03-30T21:10:35.942Z,117.37
2019-03-30T21:13:11.742Z,130.52
2019-03-30T21:15:47.550Z,148.62
2019-03-30T21:18:23.338Z,154.50
2019-03-30T21:20:59.167Z,93.37
2019-03-30T21:23:35.001Z,75.97
2019-03-30T21:26:11.590Z,102.40
2019-03-30T21:28:47.495Z,83.33
2019-03-30T21:31:23.893Z,64.60
2019-03-30T21:33:59.803Z,100.82
2019-03-30T21:36:35.683Z,140.88
2019-03-30T21:39:11.528Z,109.32
2019-03-30T21:41:48.097Z,84.85
2019-03-30T21:44:23.961Z,65.35
2019-03-30T21:46:59.829Z,57.45
2019-03-30T21:49:35.669Z,65.00
2019-03-30T21:52:11.513Z,93.45
2019-03-30T21:54:47.864Z,131.47
2019-03-30T21:57:23.730Z,119.42
2019-03-30T22:00:10.040Z,104.75
2019-03-30T22:02:38.969Z,98.70
2019-03-30T22:05:14.972Z,70.52
2019-03-30T22:07:51.055Z,62.17
2019-03-30T22:10:29.665Z,77.25
2019-03-30T22:13:05.530Z,70.32
2019-03-30T22:15:42.039Z,61.15
2019-03-30T22:18:17.779Z,54.23
2019-03-30T22:20:53.701Z,67.67
2019-03-30T22:23:29.553Z,69.53
2019-03-30T22:26:05.343Z,69.17
2019-03-30T22:28:41.569Z,69.35
2019-03-30T22:31:17.417Z,65.30
2019-03-30T22:33:53.271Z,74.60
2019-03-30T22:36:29.129Z,74.07
2019-03-30T22:39:06.876Z,82.67
2019-03-30T22:41:44.140Z,74.03
2019-03-30T22:44:20.093Z,67.92
2019-03-30T22:46:55.933Z,61.37
2019-03-30T22:49:31.970Z,77.32
2019-03-30T22:52:07.783Z,84.10
2019-03-30T22:54:44.196Z,107.85
2019-03-30T22:57:20.977Z,135.68
2019-03-30T22:59:56.837Z,131.00
2019-03-30T23:02:32.691Z,74.95
2019-03-30T23:05:08.764Z,84.58
2019-03-30T23:07:44.643Z,110.35
2019-03-30T23:10:20.424Z,120.10
2019-03-30T23:12:57.844Z,111.32
2019-03-30T23:15:34.128Z,99.07
2019-03-30T23:18:09.951Z,114.62
2019-03-30T23:20:46.022Z,76.90
2019-03-30T23:23:21.806Z,61.18
2019-03-30T23:25:57.519Z,59.73
2019-03-30T23:28:34.386Z,64.10
2019-03-30T23:31:10.139Z,91.63
2019-03-30T23:33:46.624Z,98.37
2019-03-30T23:36:22.975Z,107.97
2019-03-30T23:38:58.944Z,81.70
2019-03-30T23:41:36.032Z,72.72
2019-03-30T23:44:12.375Z,66.22
2019-03-30T23:46:48.248Z,66.97
2019-03-30T23:49:24.355Z,61.10
2019-03-30T23:52:00.252Z,51.53
2019-03-30T23:54:36.821Z,56.08
2019-03-30T23:57:13.010Z,59.93
2019-03-30T23:59:48.811Z,64.32
